createdAt,value
2019-06-26T00:00:18.828Z,25.81
2019-06-26T00:02:47.471Z,25.87
2019-06-26T00:05:16.314Z,25.74
2019-06-26T00:07:46.183Z,25.61
2019-06-26T00:10:15.711Z,25.60
2019-06-26T00:12:45.002Z,25.47
2019-06-26T00:15:14.641Z,25.46
2019-06-26T00:17:45.911Z,25.32
2019-06-26T00:20:15.037Z,25.27
2019-06-26T00:22:43.622Z,25.15
2019-06-26T00:25:13.051Z,25.11
2019-06-26T00:27:41.655Z,25.08
2019-06-26T00:30:10.595Z,24.93
2019-06-26T00:32:39.263Z,24.76
2019-06-26T00:35:07.875Z,24.88
2019-06-26T00:37:36.569Z,24.95
2019-06-26T00:40:07.250Z,24.95
2019-06-26T00:42:35.876Z,24.99
2019-06-26T00:45:06.261Z,24.88
2019-06-26T00:47:34.886Z,24.91
2019-06-26T00:50:04.444Z,24.57
2019-06-26T00:52:33.079Z,24.85
2019-06-26T00:55:01.673Z,24.69
2019-06-26T00:57:30.328Z,24.58
2019-06-26T01:00:02.995Z,24.55
2019-06-26T01:02:31.658Z,24.62
2019-06-26T01:05:01.898Z,24.35
2019-06-26T01:07:30.463Z,24.47
2019-06-26T01:09:58.993Z,24.54
2019-06-26T01:12:27.585Z,24.47
2019-06-26T01:14:56.121Z,24.36
2019-06-26T01:17:27.154Z,24.53
2019-06-26T01:19:55.708Z,24.30
2019-06-26T01:22:24.363Z,24.08
2019-06-26T01:24:52.926Z,23.87
2019-06-26T01:27:21.611Z,24.06
2019-06-26T01:29:50.235Z,24.02
2019-06-26T01:32:18.798Z,24.22
2019-06-26T01:34:47.309Z,23.99
2019-06-26T01:37:15.821Z,24.02
2019-06-26T01:39:44.367Z,24.02
2019-06-26T01:42:13.021Z,23.69
2019-06-26T01:44:41.756Z,23.82
2019-06-26T01:47:10.359Z,23.76
2019-06-26T01:49:38.907Z,23.50
2019-06-26T01:52:07.475Z,23.58
2019-06-26T01:54:35.965Z,23.47
2019-06-26T01:57:04.642Z,23.67
2019-06-26T01:59:33.140Z,23.79
2019-06-26T02:02:01.720Z,23.78
2019-06-26T02:04:30.292Z,23.78
2019-06-26T02:06:58.902Z,23.88
2019-06-26T02:09:27.571Z,23.78
2019-06-26T02:11:56.097Z,23.69
2019-06-26T02:14:30.943Z,23.70
2019-06-26T02:16:55.006Z,23.66
2019-06-26T02:19:23.626Z,23.74
2019-06-26T02:21:52.228Z,23.71
2019-06-26T02:24:20.866Z,23.68
2019-06-26T02:26:49.431Z,23.64
2019-06-26T02:29:18.101Z,23.74
2019-06-26T02:31:46.680Z,23.72
2019-06-26T02:34:15.195Z,23.69
2019-06-26T02:36:43.912Z,23.55
2019-06-26T02:39:12.508Z,23.36
2019-06-26T02:41:41.033Z,23.21
2019-06-26T02:44:09.565Z,23.39
2019-06-26T02:46:38.213Z,23.33
2019-06-26T02:49:06.823Z,23.31
2019-06-26T02:51:35.427Z,23.15
2019-06-26T02:54:04.436Z,23.29
2019-06-26T02:56:33.078Z,23.43
2019-06-26T02:59:01.687Z,23.39
2019-06-26T03:01:30.379Z,23.37
2019-06-26T03:03:59.040Z,23.24
2019-06-26T03:06:27.691Z,23.13
2019-06-26T03:08:56.288Z,23.28
2019-06-26T03:11:24.923Z,23.21
2019-06-26T03:13:53.563Z,22.83
2019-06-26T03:16:24.586Z,23.06
2019-06-26T03:18:53.246Z,23.09
2019-06-26T03:21:21.742Z,22.86
2019-06-26T03:23:50.397Z,22.87
2019-06-26T03:26:20.573Z,22.93
2019-06-26T03:28:49.111Z,22.81
2019-06-26T03:31:17.604Z,22.63
2019-06-26T03:33:46.111Z,22.77
2019-06-26T03:36:14.607Z,22.94
2019-06-26T03:38:43.222Z,22.97
2019-06-26T03:41:11.787Z,23.03
2019-06-26T03:43:40.378Z,23.14
2019-06-26T03:46:09.097Z,23.06
2019-06-26T03:48:37.668Z,23.06
2019-06-26T03:51:06.357Z,23.08
2019-06-26T03:53:34.830Z,23.24
2019-06-26T03:56:03.424Z,23.23
2019-06-26T03:58:31.910Z,23.36
2019-06-26T04:01:00.450Z,23.23
2019-06-26T04:03:28.948Z,23.32
2019-06-26T04:06:00.428Z,23.40
2019-06-26T04:08:28.928Z,23.43
2019-06-26T04:10:57.441Z,23.40
2019-06-26T04:13:25.955Z,23.41
2019-06-26T04:15:54.566Z,23.35
2019-06-26T04:18:23.108Z,23.63
2019-06-26T04:20:51.758Z,23.55
2019-06-26T04:23:20.324Z,23.67
2019-06-26T04:25:49.002Z,23.46
2019-06-26T04:28:17.486Z,23.48
2019-06-26T04:30:46.070Z,23.84
2019-06-26T04:33:14.654Z,24.05
2019-06-26T04:35:43.196Z,24.13
2019-06-26T04:38:11.873Z,24.26
2019-06-26T04:40:43.211Z,24.39
2019-06-26T04:43:11.874Z,24.48
2019-06-26T04:45:40.570Z,24.57
2019-06-26T04:48:09.201Z,24.68
2019-06-26T04:50:37.784Z,24.80
2019-06-26T04:53:06.421Z,24.93
2019-06-26T04:55:35.010Z,24.95
2019-06-26T04:58:03.719Z,25.07
2019-06-26T05:00:32.325Z,25.35
2019-06-26T05:03:00.963Z,25.53
2019-06-26T05:05:39.045Z,25.53
2019-06-26T05:07:59.869Z,25.89
2019-06-26T05:10:28.383Z,26.12
2019-06-26T05:12:57.000Z,26.65
2019-06-26T05:15:25.652Z,26.65
2019-06-26T05:17:54.299Z,27.14
2019-06-26T05:20:23.566Z,27.85
2019-06-26T05:22:52.195Z,28.21
2019-06-26T05:25:20.910Z,28.63
2019-06-26T05:27:49.521Z,28.85
2019-06-26T05:30:18.739Z,29.11
2019-06-26T05:32:47.552Z,29.42
2019-06-26T05:35:16.308Z,29.44
2019-06-26T05:37:44.886Z,29.78
2019-06-26T05:40:14.388Z,29.70
2019-06-26T05:42:42.992Z,29.82
2019-06-26T05:45:12.541Z,29.94
2019-06-26T05:47:41.309Z,29.95
2019-06-26T05:50:11.089Z,30.16
2019-06-26T05:52:42.541Z,30.21
2019-06-26T05:55:09.993Z,30.30
2019-06-26T05:57:41.813Z,30.48
2019-06-26T06:00:10.738Z,30.48
2019-06-26T06:02:39.424Z,30.69
2019-06-26T06:05:11.559Z,30.80
2019-06-26T06:07:40.237Z,30.76
2019-06-26T06:10:10.401Z,31.16
2019-06-26T06:12:39.005Z,31.04
2019-06-26T06:15:08.261Z,30.90
2019-06-26T06:17:37.209Z,30.96
2019-06-26T06:20:08.478Z,31.15
2019-06-26T06:22:37.145Z,31.39
2019-06-26T06:25:06.836Z,31.25
2019-06-26T06:27:35.537Z,31.52
2019-06-26T06:30:07.627Z,31.68
2019-06-26T06:32:36.206Z,31.40
2019-06-26T06:35:06.744Z,31.40
2019-06-26T06:37:35.419Z,31.40
2019-06-26T06:40:06.239Z,31.75
2019-06-26T06:42:34.901Z,31.70
2019-06-26T06:45:04.927Z,31.83
2019-06-26T06:47:33.581Z,31.78
2019-06-26T06:50:02.308Z,31.73
2019-06-26T06:52:30.801Z,31.97
2019-06-26T06:54:59.405Z,32.15
2019-06-26T06:57:28.014Z,32.55
2019-06-26T06:59:56.618Z,32.42
2019-06-26T07:02:25.321Z,32.09
2019-06-26T07:04:53.896Z,32.33
2019-06-26T07:07:22.462Z,32.35
2019-06-26T07:09:52.538Z,32.74
2019-06-26T07:12:21.154Z,32.62
2019-06-26T07:14:49.778Z,32.55
2019-06-26T07:17:21.020Z,32.94
2019-06-26T07:19:48.655Z,32.95
2019-06-26T07:22:17.403Z,32.95
2019-06-26T07:24:46.037Z,33.05
2019-06-26T07:27:14.625Z,32.97
2019-06-26T07:29:43.118Z,32.85
2019-06-26T07:32:11.635Z,33.13
2019-06-26T07:34:40.365Z,33.42
2019-06-26T07:37:08.948Z,33.67
2019-06-26T07:39:37.580Z,33.43
2019-06-26T07:42:06.168Z,34.05
2019-06-26T07:44:34.712Z,34.40
2019-06-26T07:47:43.209Z,33.78
2019-06-26T07:50:03.887Z,34.35
2019-06-26T07:52:32.498Z,33.86
2019-06-26T07:55:01.200Z,34.01
2019-06-26T07:57:30.981Z,34.87
2019-06-26T07:59:59.524Z,34.86
2019-06-26T08:02:28.427Z,33.63
2019-06-26T08:04:57.122Z,34.23
2019-06-26T08:07:25.765Z,34.02
2019-06-26T08:09:54.380Z,34.17
2019-06-26T08:12:22.937Z,34.61
2019-06-26T08:14:51.516Z,34.57
2019-06-26T08:17:20.149Z,34.74
2019-06-26T08:19:48.816Z,34.98
2019-06-26T08:22:17.396Z,34.74
2019-06-26T08:24:46.050Z,34.38
2019-06-26T08:27:14.630Z,35.11
2019-06-26T08:29:43.184Z,35.53
2019-06-26T08:32:11.754Z,35.56
2019-06-26T08:34:40.337Z,36.11
2019-06-26T08:37:08.891Z,36.10
2019-06-26T08:39:37.493Z,35.68
2019-06-26T08:42:05.977Z,36.08
2019-06-26T08:44:34.672Z,35.95
2019-06-26T08:47:03.132Z,35.70
2019-06-26T08:49:31.799Z,35.23
2019-06-26T08:52:00.561Z,35.15
2019-06-26T08:54:29.228Z,35.50
2019-06-26T08:56:57.821Z,35.76
2019-06-26T08:59:26.561Z,35.75
2019-06-26T09:01:55.044Z,36.31
2019-06-26T09:04:23.718Z,36.87
2019-06-26T09:06:52.277Z,37.16
2019-06-26T09:09:20.856Z,36.35
2019-06-26T09:11:49.553Z,36.34
2019-06-26T09:14:19.684Z,36.90
2019-06-26T09:16:48.436Z,36.98
2019-06-26T09:19:16.931Z,36.18
2019-06-26T09:21:45.504Z,36.45
2019-06-26T09:24:34.535Z,37.01
2019-06-26T09:40:49.409Z,39.45
2019-06-26T09:54:13.350Z,42.76
2019-06-26T09:56:43.245Z,39.91
2019-06-26T09:59:11.897Z,41.42
2019-06-26T10:01:40.560Z,40.82
2019-06-26T10:04:09.199Z,42.14
2019-06-26T10:06:37.861Z,43.55
2019-06-26T10:09:09.981Z,44.89
2019-06-26T10:11:38.662Z,45.62
2019-06-26T10:14:10.360Z,48.13
2019-06-26T10:16:38.944Z,45.52
2019-06-26T10:19:10.493Z,46.03
2019-06-26T10:21:39.393Z,48.05
2019-06-26T10:24:08.127Z,49.10
2019-06-26T10:26:36.913Z,50.40
2019-06-26T10:29:05.586Z,43.70
2019-06-26T10:31:42.733Z,44.58
2019-06-26T10:34:11.755Z,45.17
2019-06-26T10:36:40.610Z,44.53
2019-06-26T10:39:13.682Z,47.39
2019-06-26T10:41:46.048Z,46.46
2019-06-26T10:44:15.874Z,46.64
2019-06-26T10:46:44.504Z,44.16
2019-06-26T10:49:26.503Z,43.48
2019-06-26T10:51:43.551Z,46.62
2019-06-26T10:54:12.288Z,45.81
2019-06-26T10:56:40.878Z,42.97
2019-06-26T10:59:09.416Z,43.29
2019-06-26T11:01:38.108Z,43.23
2019-06-26T11:04:07.016Z,45.96
2019-06-26T11:06:37.320Z,43.91
2019-06-26T11:09:08.608Z,44.83
2019-06-26T11:11:38.890Z,47.18
2019-06-26T11:14:07.525Z,47.39
2019-06-26T11:16:36.055Z,47.13
2019-06-26T11:19:06.288Z,49.76
2019-06-26T11:21:34.960Z,50.15
2019-06-26T11:24:03.559Z,50.15
2019-06-26T11:26:32.232Z,51.41
2019-06-26T11:29:00.869Z,50.02
2019-06-26T11:31:29.474Z,51.84
2019-06-26T11:33:58.059Z,51.92
2019-06-26T11:36:26.738Z,51.93
2019-06-26T11:38:55.430Z,52.25
2019-06-26T11:41:24.122Z,49.81
2019-06-26T11:43:52.712Z,48.38
2019-06-26T11:46:21.503Z,48.85
2019-06-26T11:48:50.279Z,50.70
2019-06-26T11:51:20.533Z,49.83
2019-06-26T11:53:51.864Z,50.46
2019-06-26T11:56:20.518Z,51.90
2019-06-26T11:58:49.069Z,45.57
2019-06-26T12:01:17.825Z,47.46
2019-06-26T12:03:46.378Z,45.35
2019-06-26T12:06:18.846Z,44.80
2019-06-26T12:08:45.332Z,42.89
2019-06-26T12:11:13.928Z,45.58
2019-06-26T12:13:42.459Z,48.07
2019-06-26T12:16:10.977Z,49.62
2019-06-26T12:18:39.541Z,46.03
2019-06-26T12:21:08.148Z,49.71
2019-06-26T12:23:36.704Z,51.53
2019-06-26T12:26:05.351Z,51.44
2019-06-26T12:28:35.519Z,52.16
2019-06-26T12:31:06.827Z,54.41
2019-06-26T12:33:35.378Z,51.84
2019-06-26T12:36:04.298Z,49.79
2019-06-26T12:38:32.859Z,49.67
2019-06-26T12:41:01.447Z,52.01
2019-06-26T12:43:30.028Z,51.94
2019-06-26T12:45:58.519Z,52.60
2019-06-26T12:48:30.094Z,53.68
2019-06-26T12:50:58.935Z,53.27
2019-06-26T12:53:29.548Z,51.75
2019-06-26T12:55:57.908Z,50.39
2019-06-26T12:58:26.486Z,51.38
2019-06-26T13:00:55.073Z,49.19
2019-06-26T13:03:23.619Z,51.80
2019-06-26T13:05:52.277Z,51.32
2019-06-26T13:08:20.963Z,50.68
2019-06-26T13:10:50.598Z,51.24
2019-06-26T13:13:19.235Z,52.44
2019-06-26T13:15:51.065Z,51.92
2019-06-26T13:18:19.783Z,54.26
2019-06-26T13:20:53.208Z,53.01
2019-06-26T13:23:19.807Z,51.48
2019-06-26T13:25:48.479Z,49.96
2019-06-26T13:28:17.048Z,51.32
2019-06-26T13:30:45.783Z,51.13
2019-06-26T13:33:14.247Z,51.89
2019-06-26T13:35:43.070Z,52.02
2019-06-26T13:38:11.695Z,50.61
2019-06-26T13:40:41.199Z,49.39
2019-06-26T13:43:09.876Z,49.59
2019-06-26T13:45:38.423Z,47.32
2019-06-26T13:48:07.098Z,46.11
2019-06-26T13:50:35.757Z,48.69
2019-06-26T13:53:05.931Z,49.61
2019-06-26T13:55:34.500Z,50.01
2019-06-26T13:58:03.097Z,50.39
2019-06-26T14:00:31.774Z,53.19
2019-06-26T14:03:00.358Z,53.91
2019-06-26T14:05:29.681Z,52.36
2019-06-26T14:07:58.373Z,48.21
2019-06-26T14:10:27.120Z,47.67
2019-06-26T14:12:57.289Z,49.12
2019-06-26T14:15:25.914Z,49.66
2019-06-26T14:17:54.453Z,51.21
2019-06-26T14:20:23.141Z,49.04
2019-06-26T14:22:51.892Z,50.49
2019-06-26T14:25:20.551Z,50.82
2019-06-26T14:27:49.202Z,50.18
2019-06-26T14:30:18.137Z,48.82
2019-06-26T14:32:49.595Z,48.81
2019-06-26T14:35:19.914Z,49.42
2019-06-26T14:37:48.693Z,48.09
2019-06-26T14:40:17.491Z,47.90
2019-06-26T14:42:46.238Z,48.29
2019-06-26T14:45:14.958Z,46.51
2019-06-26T14:47:43.762Z,47.17
2019-06-26T14:50:15.937Z,47.34
2019-06-26T14:52:50.888Z,47.86
2019-06-26T14:55:37.151Z,46.51
2019-06-26T14:58:19.047Z,44.10
2019-06-26T15:01:49.055Z,45.44
2019-06-26T15:06:27.894Z,44.60
2019-06-26T15:12:02.293Z,43.96
2019-06-26T15:14:35.199Z,42.52
2019-06-26T15:17:05.362Z,42.49
2019-06-26T15:19:35.560Z,42.49
2019-06-26T15:22:08.429Z,41.95
2019-06-26T15:24:40.705Z,41.63
2019-06-26T15:27:12.699Z,42.01
2019-06-26T15:29:44.662Z,42.38
2019-06-26T15:32:13.475Z,41.78
2019-06-26T15:34:46.543Z,42.35
2019-06-26T15:37:16.988Z,41.67
2019-06-26T15:39:54.464Z,42.04
2019-06-26T15:42:23.127Z,41.76
2019-06-26T15:44:51.751Z,42.25
2019-06-26T15:47:23.339Z,41.31
2019-06-26T15:49:56.290Z,40.73
2019-06-26T15:52:25.064Z,40.69
2019-06-26T15:54:54.300Z,41.32
2019-06-26T15:57:22.917Z,41.46
2019-06-26T15:59:53.917Z,40.60
2019-06-26T16:02:21.872Z,40.57
2019-06-26T16:04:52.335Z,40.92
2019-06-26T16:07:21.012Z,40.30
2019-06-26T16:09:51.352Z,40.58
2019-06-26T16:12:20.316Z,40.64
2019-06-26T16:14:49.391Z,39.87
2019-06-26T16:17:30.384Z,40.26
2019-06-26T16:20:01.219Z,40.48
2019-06-26T16:22:32.609Z,39.20
2019-06-26T16:25:05.632Z,39.45
2019-06-26T16:27:34.590Z,39.78
2019-06-26T16:30:03.648Z,39.59
2019-06-26T16:32:32.349Z,39.61
2019-06-26T16:35:01.117Z,40.10
2019-06-26T16:37:29.884Z,39.67
2019-06-26T16:43:02.457Z,40.08
2019-06-26T16:45:35.553Z,39.75
2019-06-26T16:48:06.497Z,39.95
2019-06-26T16:50:41.667Z,39.62
2019-06-26T16:53:11.456Z,39.38
2019-06-26T16:58:54.691Z,40.00
2019-06-26T17:01:24.841Z,39.80
2019-06-26T17:04:11.593Z,39.13
2019-06-26T17:06:49.586Z,39.02
2019-06-26T17:09:18.347Z,39.14
2019-06-26T17:12:12.294Z,39.49
2019-06-26T17:14:39.948Z,39.03
2019-06-26T17:17:10.868Z,39.00
2019-06-26T17:19:39.605Z,39.17
2019-06-26T17:22:17.967Z,38.99
2019-06-26T17:24:58.089Z,38.72
2019-06-26T17:27:42.237Z,39.04
2019-06-26T17:30:11.951Z,38.31
2019-06-26T17:32:41.749Z,38.73
2019-06-26T17:35:10.447Z,38.29
2019-06-26T17:37:40.564Z,38.44
2019-06-26T17:40:13.245Z,38.62
2019-06-26T17:42:41.931Z,38.28
2019-06-26T17:48:09.795Z,37.66
2019-06-26T17:50:38.591Z,37.69
2019-06-26T17:53:20.628Z,37.70
2019-06-26T17:55:37.614Z,37.75
2019-06-26T17:58:07.505Z,37.88
2019-06-26T18:00:37.951Z,37.27
2019-06-26T18:03:06.720Z,37.08
2019-06-26T18:05:35.334Z,37.19
2019-06-26T18:08:06.252Z,37.28
2019-06-26T18:12:16.173Z,37.25
2019-06-26T18:13:11.116Z,37.23
2019-06-26T18:15:41.473Z,37.17
2019-06-26T18:18:11.621Z,36.79
2019-06-26T18:20:40.255Z,36.93
2019-06-26T18:23:10.490Z,36.69
2019-06-26T18:25:39.148Z,36.58
2019-06-26T18:28:09.225Z,36.30
2019-06-26T18:30:38.221Z,36.36
2019-06-26T18:33:10.757Z,36.06
2019-06-26T18:35:40.646Z,35.83
2019-06-26T18:38:09.406Z,35.77
2019-06-26T18:40:38.088Z,35.48
2019-06-26T18:43:15.561Z,35.90
2019-06-26T18:45:50.074Z,35.85
2019-06-26T18:48:24.971Z,35.70
2019-06-26T18:51:11.579Z,35.55
2019-06-26T18:53:53.196Z,35.93
2019-06-26T18:56:30.329Z,35.44
2019-06-26T18:59:49.094Z,35.82
2019-06-26T19:02:36.980Z,35.47
2019-06-26T19:07:39.985Z,34.88
2019-06-26T19:10:09.075Z,34.44
2019-06-26T19:12:37.819Z,35.00
2019-06-26T19:15:07.585Z,34.85
2019-06-26T19:17:47.174Z,34.75
2019-06-26T19:20:39.447Z,34.71
2019-06-26T19:23:08.979Z,34.69
2019-06-26T19:25:37.598Z,34.52
2019-06-26T19:28:07.841Z,34.29
2019-06-26T19:30:36.639Z,34.22
2019-06-26T19:33:05.377Z,34.32
2019-06-26T19:35:34.006Z,34.09
2019-06-26T19:38:12.305Z,33.97
2019-06-26T19:40:41.513Z,34.10
2019-06-26T19:43:11.220Z,34.10
2019-06-26T19:45:41.200Z,34.07
2019-06-26T19:48:09.885Z,33.72
2019-06-26T19:50:38.393Z,33.78
2019-06-26T19:53:07.053Z,33.69
2019-06-26T19:55:35.743Z,33.73
2019-06-26T19:58:04.429Z,33.44
2019-06-26T20:00:35.638Z,33.41
2019-06-26T20:03:06.016Z,33.35
2019-06-26T20:05:36.047Z,33.36
2019-06-26T20:08:05.073Z,33.18
2019-06-26T20:10:37.859Z,32.98
2019-06-26T20:13:17.870Z,33.03
2019-06-26T20:15:50.299Z,32.82
2019-06-26T20:18:18.931Z,32.75
2019-06-26T20:20:47.461Z,32.89
2019-06-26T20:23:16.013Z,32.92
2019-06-26T20:25:44.653Z,32.81
2019-06-26T20:28:13.347Z,32.79
2019-06-26T20:30:42.038Z,32.56
2019-06-26T20:33:10.726Z,32.94
2019-06-26T20:35:39.386Z,32.83
2019-06-26T20:38:07.956Z,32.75
2019-06-26T20:40:36.695Z,32.51
2019-06-26T20:43:05.423Z,32.46
2019-06-26T20:45:33.938Z,32.47
2019-06-26T20:48:02.573Z,32.29
2019-06-26T20:50:31.043Z,31.84
2019-06-26T20:52:59.609Z,31.92
2019-06-26T20:55:28.125Z,32.10
2019-06-26T20:57:56.608Z,31.92
2019-06-26T21:00:25.462Z,31.84
2019-06-26T21:02:54.582Z,31.77
2019-06-26T21:05:23.230Z,31.47
2019-06-26T21:07:51.871Z,31.61
2019-06-26T21:10:20.516Z,31.85
2019-06-26T21:12:49.010Z,31.78
2019-06-26T21:15:17.649Z,31.57
2019-06-26T21:17:46.244Z,31.60
2019-06-26T21:20:15.318Z,31.43
2019-06-26T21:22:43.795Z,31.43
2019-06-26T21:25:19.010Z,31.54
2019-06-26T21:27:42.596Z,31.70
2019-06-26T21:30:11.359Z,31.59
2019-06-26T21:32:39.866Z,31.45
2019-06-26T21:35:11.022Z,31.39
2019-06-26T21:37:39.638Z,30.61
2019-06-26T21:40:08.388Z,31.07
2019-06-26T21:42:36.937Z,30.76
2019-06-26T21:45:06.371Z,30.87
2019-06-26T21:47:35.061Z,30.80
2019-06-26T21:50:04.405Z,30.74
2019-06-26T21:52:32.998Z,31.08
2019-06-26T21:55:01.575Z,30.76
2019-06-26T21:57:30.172Z,30.23
2019-06-26T21:59:58.717Z,30.40
2019-06-26T22:02:27.355Z,30.34
2019-06-26T22:04:55.899Z,30.29
2019-06-26T22:07:24.728Z,30.69
2019-06-26T22:09:53.461Z,30.69
2019-06-26T22:12:22.070Z,30.51
2019-06-26T22:14:50.629Z,30.41
2019-06-26T22:17:19.517Z,30.64
2019-06-26T22:19:48.009Z,30.59
2019-06-26T22:22:16.652Z,30.33
2019-06-26T22:24:45.313Z,30.36
2019-06-26T22:27:16.690Z,30.46
2019-06-26T22:29:45.168Z,30.21
2019-06-26T22:32:14.028Z,29.76
2019-06-26T22:34:42.598Z,29.96
2019-06-26T22:37:11.111Z,29.87
2019-06-26T22:39:39.614Z,30.12
2019-06-26T22:42:08.106Z,29.96
2019-06-26T22:44:36.697Z,29.74
2019-06-26T22:47:05.247Z,29.76
2019-06-26T22:49:33.893Z,29.80
2019-06-26T22:52:02.441Z,29.99
2019-06-26T22:54:30.967Z,30.11
2019-06-26T22:56:59.601Z,30.01
2019-06-26T22:59:28.194Z,29.90
2019-06-26T23:01:56.781Z,29.73
2019-06-26T23:04:25.265Z,28.94
2019-06-26T23:06:53.871Z,28.36
2019-06-26T23:09:22.509Z,28.32
2019-06-26T23:11:51.072Z,28.06
2019-06-26T23:14:19.665Z,28.81
2019-06-26T23:16:48.222Z,29.06
2019-06-26T23:19:16.834Z,29.20
2019-06-26T23:21:45.543Z,29.04
2019-06-26T23:24:14.041Z,28.92
2019-06-26T23:26:42.596Z,29.21
2019-06-26T23:29:11.281Z,29.07
2019-06-26T23:31:39.752Z,28.81
2019-06-26T23:34:08.338Z,28.79
2019-06-26T23:36:36.923Z,28.58
2019-06-26T23:39:06.165Z,28.70
2019-06-26T23:41:34.807Z,28.49
2019-06-26T23:44:03.396Z,28.36
2019-06-26T23:46:31.902Z,28.26
2019-06-26T23:49:01.537Z,28.17
2019-06-26T23:51:30.242Z,28.42
2019-06-26T23:53:58.923Z,28.08
2019-06-26T23:56:39.955Z,28.32
2019-06-26T23:58:57.660Z,28.14
